Time;durP1;ratioP1;P1;durP2;ratioP2;P2;SDS_P1;SDS_P2;PMS_P1;PMS_P2;Temp;Humidity;BMP_temperature;BMP_pressure;BME280_temperature;BME280_humidity;BME280_pressure;Samples;Min_cycle;Max_cycle;Signal;HPM_P1;HPM_P2
2022/05/25 00:04:16;;;;;;;1.67;0.68;;;;;;;15.53;72.07;97445.81;10479940;28;20417;-75
2022/05/25 00:09:37;;;;;;;4.05;0.88;;;;;;;15.49;72.07;97445.66;10509023;28;20040;-75
2022/05/25 00:15:07;;;;;;;1.83;0.90;;;;;;;15.48;72.19;97438.59;10511654;28;20044;-76
2022/05/25 00:20:28;;;;;;;4.15;0.90;;;;;;;15.51;72.38;97451.38;10515164;28;20035;-77
2022/05/25 00:25:54;;;;;;;3.13;0.73;;;;;;;15.54;72.14;97447.28;10475318;28;20106;-76
2022/05/25 00:31:15;;;;;;;1.50;1.00;;;;;;;15.55;72.25;97440.31;10478420;28;20102;-75
2022/05/25 00:36:36;;;;;;;1.98;0.80;;;;;;;15.58;72.00;97446.72;10530308;28;20057;-76
2022/05/25 00:42:04;;;;;;;3.33;0.90;;;;;;;15.56;71.93;97438.94;10517740;28;20089;-76
2022/05/25 00:47:31;;;;;;;1.60;0.90;;;;;;;15.55;72.06;97425.50;10505143;28;20044;-76
2022/05/25 00:52:56;;;;;;;3.20;0.82;;;;;;;15.49;72.18;97430.88;10502491;28;20048;-76
2022/05/25 00:58:17;;;;;;;4.97;0.90;;;;;;;15.46;72.50;97430.78;10528191;28;20538;-75
2022/05/25 01:03:37;;;;;;;2.92;1.00;;;;;;;15.46;72.40;97432.88;10499824;28;20040;-74
2022/05/25 01:09:02;;;;;;;3.05;0.98;;;;;;;15.47;72.49;97431.50;10528055;28;20047;-76
2022/05/25 01:15:07;;;;;;;3.25;0.73;;;;;;;15.48;72.48;97420.97;10514102;28;20055;-75
2022/05/25 01:21:12;;;;;;;1.83;1.05;;;;;;;15.49;72.48;97433.69;10503429;28;20036;-75
2022/05/25 01:27:11;;;;;;;2.97;0.73;;;;;;;15.47;72.56;97423.06;10513518;28;20036;-75
2022/05/25 01:32:41;;;;;;;2.15;1.00;;;;;;;15.46;72.43;97436.41;10527687;28;20402;-75
2022/05/25 01:38:23;;;;;;;2.30;0.88;;;;;;;15.45;72.29;97423.72;10485689;28;20055;-74
2022/05/25 01:43:58;;;;;;;4.32;0.90;;;;;;;15.41;72.32;97429.16;10473708;28;20418;-75
2022/05/25 01:49:19;;;;;;;;;;;;;;;15.41;72.70;97431.22;10485018;28;20494;-75
2022/05/25 01:54:46;;;;;;;5.30;1.10;;;;;;;15.43;72.60;97445.38;10509422;28;20273;-75
2022/05/25 02:00:07;;;;;;;2.38;0.73;;;;;;;15.41;72.44;97439.66;10495059;28;20058;-77
2022/05/25 02:05:36;;;;;;;2.47;0.75;;;;;;;15.42;72.38;97432.69;10520787;28;20040;-75
2022/05/25 02:11:32;;;;;;;3.92;1.10;;;;;;;15.42;72.36;97435.50;10523370;28;20044;-75
2022/05/25 02:17:09;;;;;;;3.63;0.88;;;;;;;15.40;72.39;97443.84;10508768;28;20048;-76
2022/05/25 02:23:42;;;;;;;5.38;1.30;;;;;;;15.40;72.56;97453.00;10516691;28;20048;-75
2022/05/25 02:43:30;;;;;;;3.33;0.90;;;;;;;15.33;72.48;97453.38;10539723;28;20455;-75
2022/05/25 02:49:19;;;;;;;2.45;1.00;;;;;;;15.33;72.70;97445.66;10518467;28;20055;-75
2022/05/25 02:54:42;;;;;;;7.88;0.82;;;;;;;15.33;72.57;97453.38;10485046;28;20047;-75
2022/05/25 03:00:32;;;;;;;3.28;1.00;;;;;;;15.34;72.46;97452.00;10463320;28;20057;-76
2022/05/25 03:06:37;;;;;;;;;;;;;;;15.34;72.81;97452.00;10457462;28;20086;-75
2022/05/25 03:12:27;;;;;;;4.80;1.10;;;;;;;15.36;72.60;97455.66;10498971;28;19921;-74
2022/05/25 03:18:18;;;;;;;2.20;0.98;;;;;;;15.37;72.68;97462.00;10468103;28;20056;-76
2022/05/25 03:24:07;;;;;;;4.03;1.17;;;;;;;15.39;72.59;97474.06;10487315;28;20049;-77
2022/05/25 03:29:56;;;;;;;3.90;0.90;;;;;;;15.41;72.66;97490.28;10498694;28;20127;-79
2022/05/25 03:35:45;;;;;;;1.80;0.70;;;;;;;15.44;72.61;97483.38;10499863;28;20049;-76
2022/05/25 03:41:33;;;;;;;2.78;0.90;;;;;;;15.45;72.69;97470.81;10477141;28;20084;-76
2022/05/25 03:47:22;;;;;;;3.00;1.00;;;;;;;15.50;72.60;97463.97;10478713;28;20127;-75
2022/05/25 03:53:14;;;;;;;1.88;1.20;;;;;;;15.54;72.78;97469.81;10488868;28;20040;-75
2022/05/25 03:58:35;;;;;;;1.90;1.45;;;;;;;15.56;72.36;97472.69;10494929;28;20481;-76
2022/05/25 04:03:58;;;;;;;2.45;1.23;;;;;;;15.55;72.41;97471.25;10498378;28;20516;-75
2022/05/25 04:09:19;;;;;;;2.88;1.02;;;;;;;15.57;72.28;97474.13;10500288;28;20039;-75
2022/05/25 04:14:45;;;;;;;3.63;1.40;;;;;;;15.59;72.29;97481.94;10503126;28;20045;-75
2022/05/25 04:20:06;;;;;;;3.00;1.42;;;;;;;15.60;72.46;97477.75;10512173;28;20044;-74
2022/05/25 04:25:34;;;;;;;3.92;1.55;;;;;;;15.58;72.45;97464.34;10516982;28;20051;-74
2022/05/25 04:30:58;;;;;;;3.30;1.75;;;;;;;15.55;72.51;97470.53;10516648;28;20055;-74
2022/05/25 04:36:48;;;;;;;3.72;1.85;;;;;;;15.67;72.61;97485.88;10502916;28;20056;-73
2022/05/25 04:42:09;;;;;;;5.32;2.28;;;;;;;15.81;72.51;97493.47;10515057;28;20037;-75
2022/05/25 04:47:31;;;;;;;4.90;2.53;;;;;;;15.93;72.41;97497.53;10498069;28;20486;-76
2022/05/25 04:52:53;;;;;;;5.47;2.97;;;;;;;16.09;72.34;97499.56;10512446;28;20043;-74
2022/05/25 04:58:27;;;;;;;7.47;4.50;;;;;;;16.24;72.29;97496.00;10528633;28;20051;-75
2022/05/25 05:03:48;;;;;;;5.80;3.97;;;;;;;16.38;72.11;97498.66;10513341;28;20060;-77
2022/05/25 05:09:09;;;;;;;7.85;5.90;;;;;;;16.47;72.08;97497.63;10513590;28;20044;-77
2022/05/25 05:14:30;;;;;;;9.65;7.45;;;;;;;16.57;71.91;97495.22;10513215;28;20051;-78
2022/05/25 05:19:50;;;;;;;12.70;10.15;;;;;;;16.71;71.82;97501.44;10495332;28;20048;-76
2022/05/25 05:25:14;;;;;;;15.77;11.45;;;;;;;16.88;71.33;97520.44;10471651;28;20044;-77
2022/05/25 05:30:36;;;;;;;15.63;11.52;;;;;;;17.10;70.93;97542.44;10485825;28;20053;-77
2022/05/25 05:36:16;;;;;;;17.55;12.13;;;;;;;17.21;70.89;97537.91;10472054;28;20041;-77
2022/05/25 05:41:43;;;;;;;12.40;10.48;;;;;;;17.49;70.61;97543.88;10499231;28;20040;-77
2022/05/25 05:47:05;;;;;;;15.27;10.98;;;;;;;17.57;70.29;97550.56;10499908;28;20097;-78
2022/05/25 05:52:27;;;;;;;17.17;12.73;;;;;;;17.42;69.90;97543.66;10471039;28;20119;-78
2022/05/25 05:57:47;;;;;;;20.90;15.73;;;;;;;17.18;70.29;97551.22;10469662;28;20045;-78
2022/05/25 06:03:08;;;;;;;18.17;14.77;;;;;;;17.13;70.17;97572.88;10469458;28;20048;-78
2022/05/25 06:08:30;;;;;;;18.90;13.82;;;;;;;17.00;70.54;97573.06;10470317;28;20067;-78
2022/05/25 06:13:51;;;;;;;19.70;13.40;;;;;;;17.00;70.93;97575.88;10469993;28;20044;-78
2022/05/25 06:19:25;;;;;;;16.75;13.30;;;;;;;17.02;70.66;97573.84;10469858;28;20041;-77
2022/05/25 06:24:51;;;;;;;18.90;14.70;;;;;;;17.08;70.39;97570.53;10483550;28;20048;-77
2022/05/25 06:30:12;;;;;;;21.33;15.52;;;;;;;17.09;70.15;97555.09;10469537;28;20413;-77
2022/05/25 06:35:33;;;;;;;19.90;15.30;;;;;;;17.05;70.35;97561.28;10483488;28;20047;-77
2022/05/25 06:40:54;;;;;;;21.77;16.20;;;;;;;17.26;70.18;97587.44;10483023;28;20036;-78
2022/05/25 06:46:18;;;;;;;20.05;16.48;;;;;;;17.48;69.84;97613.00;10497029;28;20059;-78
2022/05/25 06:51:41;;;;;;;24.92;18.80;;;;;;;17.71;69.72;97601.19;10469289;28;20041;-77
2022/05/25 06:57:02;;;;;;;30.42;21.88;;;;;;;18.18;69.37;97608.53;10469021;28;20045;-77
2022/05/25 07:02:23;;;;;;;34.63;23.55;;;;;;;18.60;68.33;97618.47;10482586;28;20053;-77
2022/05/25 07:07:44;;;;;;;32.40;22.05;;;;;;;18.68;67.72;97618.06;10496498;28;20037;-78
2022/05/25 07:13:05;;;;;;;34.25;23.75;;;;;;;18.39;67.61;97624.81;10468727;28;20055;-77
2022/05/25 07:18:26;;;;;;;34.53;24.55;;;;;;;18.18;67.73;97631.13;10496300;28;20498;-77
2022/05/25 07:23:48;;;;;;;36.80;24.17;;;;;;;18.13;67.93;97635.91;10482205;28;20408;-77
2022/05/25 07:29:09;;;;;;;34.03;25.10;;;;;;;18.16;67.87;97645.19;10474477;28;20044;-77
2022/05/25 07:34:34;;;;;;;33.55;25.23;;;;;;;18.16;67.75;97657.22;10476525;28;20040;-77
2022/05/25 07:39:58;;;;;;;31.05;23.55;;;;;;;18.14;67.85;97664.88;10489944;28;20048;-77
2022/05/25 07:45:19;;;;;;;26.70;20.98;;;;;;;18.14;67.66;97668.41;10475856;28;20037;-77
2022/05/25 07:50:40;;;;;;;24.27;19.75;;;;;;;18.11;67.52;97677.47;10489726;28;20048;-77
2022/05/25 07:56:03;;;;;;;21.10;18.50;;;;;;;18.24;67.55;97690.69;10489605;28;20040;-77
2022/05/25 08:05:43;;;;;;;;;;;;;;;18.28;67.23;97702.84;10474298;28;20498;-76
2022/05/25 08:07:06;;;;;;;11.63;10.27;;;;;;;18.28;67.34;97713.41;10477599;28;20361;-78
2022/05/25 08:12:27;;;;;;;9.77;8.23;;;;;;;18.29;67.08;97720.53;10474976;28;20066;-77
2022/05/25 08:17:48;;;;;;;7.85;5.78;;;;;;;18.20;66.59;97735.72;10473892;28;20070;-77
2022/05/25 08:23:10;;;;;;;5.97;4.72;;;;;;;18.21;66.51;97737.16;10460432;28;20047;-77
2022/05/25 08:28:31;;;;;;;7.65;4.45;;;;;;;18.25;66.46;97751.47;10465888;28;20079;-77
2022/05/25 08:33:52;;;;;;;4.88;2.47;;;;;;;18.37;65.65;97763.22;10504130;28;20048;-75
2022/05/25 08:39:14;;;;;;;3.28;2.20;;;;;;;18.56;65.84;97748.38;10472733;28;20044;-78
2022/05/25 08:44:35;;;;;;;2.63;1.70;;;;;;;18.69;65.06;97746.00;10459843;28;20036;-78
2022/05/25 08:49:56;;;;;;;3.88;1.60;;;;;;;18.81;64.93;97749.97;10459670;28;20052;-76
2022/05/25 08:55:27;;;;;;;3.85;1.63;;;;;;;18.95;64.59;97754.69;10487038;28;20044;-77
2022/05/25 09:00:48;;;;;;;3.55;1.23;;;;;;;18.95;63.10;97774.50;10472945;28;20060;-74
2022/05/25 09:06:42;;;;;;;4.07;1.88;;;;;;;18.82;63.54;97784.66;10486299;28;20044;-76
2022/05/25 09:12:13;;;;;;;2.97;1.50;;;;;;;18.56;63.04;97798.53;10475277;28;20509;-77
2022/05/25 09:17:52;;;;;;;6.50;1.55;;;;;;;18.34;62.87;97815.38;10486297;28;20048;-76
2022/05/25 09:23:13;;;;;;;3.83;1.52;;;;;;;18.21;62.82;97810.63;10502136;28;20123;-77
2022/05/25 09:28:34;;;;;;;5.20;1.25;;;;;;;18.13;62.21;97810.31;10527390;28;20040;-74
2022/05/25 09:33:57;;;;;;;3.97;1.48;;;;;;;18.12;62.64;97822.97;10499252;28;20035;-77
2022/05/25 09:39:23;;;;;;;3.83;1.55;;;;;;;18.17;62.74;97821.78;10513033;28;20402;-78
2022/05/25 09:44:49;;;;;;;3.97;1.27;;;;;;;18.20;62.27;97817.66;10498803;28;20043;-79
2022/05/25 09:50:33;;;;;;;2.83;1.10;;;;;;;18.17;62.22;97821.78;10526849;28;20059;-79
2022/05/25 09:56:17;;;;;;;3.28;0.90;;;;;;;18.24;62.24;97823.47;10513554;28;20051;-77
2022/05/25 10:01:45;;;;;;;2.17;0.80;;;;;;;18.45;62.11;97830.63;10514154;28;20063;-75
2022/05/25 10:07:16;;;;;;;2.03;0.60;;;;;;;18.47;61.66;97839.88;10498640;28;20040;-74
2022/05/25 10:12:37;;;;;;;1.05;0.47;;;;;;;18.52;61.63;97835.09;10498039;28;20493;-74
2022/05/25 10:17:59;;;;;;;2.35;0.40;;;;;;;18.56;61.17;97826.78;10540596;28;20059;-74
2022/05/25 10:23:22;;;;;;;4.00;0.50;;;;;;;18.76;60.83;97830.41;10525197;28;20036;-74
2022/05/25 10:28:51;;;;;;;4.07;0.77;;;;;;;18.93;60.58;97828.91;10497056;28;20093;-75
2022/05/25 10:40:09;;;;;;;2.38;0.80;;;;;;;19.75;59.06;97820.38;10502648;28;20044;-75
2022/05/25 10:45:37;;;;;;;3.17;0.95;;;;;;;20.01;58.55;97818.41;10496512;28;20047;-74
2022/05/25 10:51:08;;;;;;;4.38;0.90;;;;;;;20.29;57.90;97810.06;10525056;28;20047;-73
2022/05/25 10:56:35;;;;;;;1.88;0.90;;;;;;;20.37;57.59;97812.41;10493753;28;20044;-74
2022/05/25 11:02:41;;;;;;;2.97;1.15;;;;;;;20.43;56.49;97827.50;10506527;28;20448;-74
2022/05/25 11:08:18;;;;;;;2.75;0.95;;;;;;;20.53;56.89;97819.31;10504421;28;20130;-74
2022/05/25 11:13:58;;;;;;;2.20;0.90;;;;;;;20.80;56.72;97822.91;10473248;28;20477;-74
2022/05/25 11:19:32;;;;;;;1.88;0.85;;;;;;;21.43;54.41;97833.19;10507259;28;20075;-74
2022/05/25 11:25:13;;;;;;;2.55;1.35;;;;;;;21.99;53.49;97845.25;10492020;28;20450;-75
2022/05/25 11:30:42;;;;;;;3.47;0.93;;;;;;;22.55;53.32;97850.81;10487084;28;20048;-74
2022/05/25 11:36:15;;;;;;;4.20;1.45;;;;;;;22.56;50.85;97865.75;10493665;28;20673;-74
2022/05/25 11:41:44;;;;;;;3.33;0.90;;;;;;;22.24;51.21;97862.91;10483001;28;20538;-74
2022/05/25 11:48:04;;;;;;;3.75;1.02;;;;;;;22.00;50.82;97857.31;10490469;28;20045;-74
2022/05/25 11:53:33;;;;;;;2.78;1.15;;;;;;;21.67;51.50;97864.31;10398869;28;20491;-83
2022/05/25 11:59:30;;;;;;;4.25;1.08;;;;;;;21.40;51.28;97869.31;10510899;28;20059;-79
2022/05/25 12:05:03;;;;;;;3.88;1.10;;;;;;;21.12;51.83;97869.22;10473082;28;20048;-78
2022/05/25 12:10:32;;;;;;;2.13;1.30;;;;;;;20.94;52.18;97860.22;10482542;28;20045;-75
2022/05/25 12:16:03;;;;;;;2.97;1.00;;;;;;;20.96;51.83;97863.09;10486794;28;20052;-74
2022/05/25 12:21:32;;;;;;;2.50;1.40;;;;;;;20.71;52.09;97861.66;10510795;28;20040;-75
2022/05/25 12:26:52;;;;;;;3.13;1.27;;;;;;;20.73;51.92;97849.66;10516031;28;20036;-75
2022/05/25 12:32:13;;;;;;;2.03;0.90;;;;;;;21.02;51.50;97848.34;10529319;28;20122;-74
2022/05/25 12:37:35;;;;;;;1.60;1.00;;;;;;;22.24;50.82;97852.25;10527866;28;20036;-77
2022/05/25 12:42:56;;;;;;;3.38;0.93;;;;;;;23.17;49.04;97863.53;10514850;28;20040;-75
2022/05/25 12:48:30;;;;;;;2.45;0.77;;;;;;;23.51;47.19;97864.16;10487321;28;20048;-74
2022/05/25 12:53:52;;;;;;;1.17;0.68;;;;;;;24.00;45.46;97859.34;10529398;28;20498;-75
2022/05/25 12:59:24;;;;;;;1.65;0.60;;;;;;;24.14;44.63;97848.16;10513941;28;20044;-74
2022/05/25 13:04:44;;;;;;;1.27;0.52;;;;;;;23.39;43.49;97844.00;10499785;28;20048;-75
2022/05/25 13:10:41;;;;;;;2.97;0.57;;;;;;;23.01;41.77;97841.84;10507234;28;20043;-77
2022/05/25 13:16:01;;;;;;;1.35;0.35;;;;;;;21.86;43.35;97846.34;10419334;28;20064;-74
2022/05/25 13:21:34;;;;;;;0.90;0.32;;;;;;;21.75;43.98;97829.72;10504977;28;20048;-74
2022/05/25 13:26:59;;;;;;;2.90;0.50;;;;;;;21.21;43.39;97836.09;10499900;28;20446;-75
2022/05/25 13:32:36;;;;;;;1.10;0.30;;;;;;;21.02;43.67;97829.22;10505602;28;20043;-74
2022/05/25 13:38:00;;;;;;;0.50;0.17;;;;;;;21.36;43.47;97828.72;10496200;28;20044;-74
2022/05/25 13:43:44;;;;;;;2.20;0.35;;;;;;;21.19;43.02;97821.88;10508516;28;20456;-74
2022/05/25 13:49:05;;;;;;;0.45;0.20;;;;;;;20.74;42.52;97820.63;10501119;28;20044;-74
2022/05/25 13:54:33;;;;;;;1.52;0.40;;;;;;;20.35;42.69;97821.56;10512206;28;20048;-74
2022/05/25 14:00:22;;;;;;;1.02;0.30;;;;;;;19.96;43.35;97814.69;10528055;28;20056;-74
2022/05/25 14:05:46;;;;;;;2.15;0.30;;;;;;;20.17;43.54;97809.66;10526479;28;20040;-74
2022/05/25 14:11:13;;;;;;;2.20;0.25;;;;;;;20.15;43.59;97804.66;10525604;28;20047;-75
2022/05/25 14:16:34;;;;;;;0.47;0.10;;;;;;;20.50;43.43;97803.63;10511942;28;20383;-75
2022/05/25 14:21:58;;;;;;;1.83;0.45;;;;;;;20.54;43.01;97800.19;10511347;28;20102;-91
2022/05/25 14:27:24;;;;;;;1.33;0.20;;;;;;;20.64;43.55;97794.81;10498763;28;20040;-88
2022/05/25 14:33:03;;;;;;;2.55;0.30;;;;;;;20.75;42.99;97776.69;10497725;28;20051;-90
2022/05/25 14:38:26;;;;;;;0.40;0.10;;;;;;;21.02;43.17;97785.91;10511896;28;20067;-90
2022/05/25 14:44:07;;;;;;;4.32;0.32;;;;;;;21.13;42.59;97773.44;10517143;28;20040;-90
2022/05/25 14:49:28;;;;;;;2.15;0.20;;;;;;;21.14;42.84;97777.75;10497284;28;20520;-89
2022/05/25 14:54:49;;;;;;;1.17;0.30;;;;;;;20.72;43.00;97778.03;10496773;28;20043;-90
2022/05/25 15:00:13;;;;;;;1.15;0.20;;;;;;;20.09;43.99;97773.31;10497070;28;20056;-91
2022/05/25 15:05:44;;;;;;;4.45;0.20;;;;;;;20.09;43.63;97770.50;10511377;28;20402;-84
2022/05/25 15:11:29;;;;;;;0.60;0.10;;;;;;;20.39;43.17;97778.47;10510943;28;20048;-91
2022/05/25 15:22:50;;;;;;;;;;;;;;;20.72;42.75;97765.94;10528472;28;20488;-84
2022/05/25 15:28:32;;;;;;;2.85;0.30;;;;;;;20.30;42.64;97766.88;10526421;28;19923;-84
2022/05/25 15:34:00;;;;;;;1.80;0.20;;;;;;;19.92;43.26;97757.94;10498886;28;20044;-85
2022/05/25 15:39:25;;;;;;;1.00;0.22;;;;;;;19.80;43.13;97754.00;10496355;28;20036;-80
2022/05/25 15:44:46;;;;;;;0.57;0.10;;;;;;;19.65;43.47;97766.97;10507271;28;20044;-84
2022/05/25 15:50:08;;;;;;;1.52;0.20;;;;;;;19.56;43.63;97749.00;10514394;28;20051;-84
2022/05/25 15:55:29;;;;;;;0.30;0.10;;;;;;;19.61;43.60;97756.25;10530514;28;20425;-88
2022/05/25 16:00:51;;;;;;;0.98;0.20;;;;;;;19.66;43.72;97757.09;10516994;28;20064;-79
2022/05/25 16:06:14;;;;;;;2.22;0.30;;;;;;;19.69;42.96;97764.28;10502592;28;20040;-82
2022/05/25 16:11:38;;;;;;;1.25;0.20;;;;;;;19.63;43.29;97764.81;10530622;28;20040;-77
2022/05/25 16:16:59;;;;;;;1.08;0.20;;;;;;;19.70;43.13;97762.91;10530735;28;20053;-83
2022/05/25 16:22:25;;;;;;;1.88;0.13;;;;;;;20.15;42.45;97759.31;10516560;28;20040;-82
2022/05/25 16:27:46;;;;;;;3.17;0.20;;;;;;;20.55;40.41;97753.41;10516297;28;20069;-92
2022/05/25 16:33:08;;;;;;;5.05;0.20;;;;;;;20.69;40.71;97753.13;10532463;28;20055;-86
2022/05/25 16:38:29;;;;;;;1.73;0.10;;;;;;;20.64;39.61;97760.03;10512173;28;20375;-82
2022/05/25 16:43:51;;;;;;;0.57;0.20;;;;;;;20.59;38.63;97759.22;10501063;28;20444;-86
2022/05/25 16:49:13;;;;;;;3.92;0.20;;;;;;;20.36;38.69;97774.09;10482288;28;20161;-82
2022/05/25 16:54:34;;;;;;;0.57;0.20;;;;;;;20.11;39.10;97764.16;10480872;28;20044;-77
2022/05/25 16:59:54;;;;;;;0.63;0.20;;;;;;;19.94;39.09;97765.75;10472064;28;20052;-80
2022/05/25 17:05:17;;;;;;;1.38;0.20;;;;;;;20.00;39.05;97772.34;10472982;28;20111;-81
2022/05/25 17:10:42;;;;;;;1.38;0.20;;;;;;;19.98;38.58;97774.41;10487194;28;20041;-80
2022/05/25 17:16:03;;;;;;;2.22;0.20;;;;;;;19.78;38.68;97770.91;10495899;28;20440;-79
2022/05/25 17:21:26;;;;;;;1.52;0.10;;;;;;;19.62;38.92;97779.63;10496491;28;20051;-79
2022/05/25 17:26:47;;;;;;;1.47;0.20;;;;;;;19.42;39.46;97780.38;10444622;28;20036;-78
2022/05/25 17:32:08;;;;;;;1.75;0.20;;;;;;;19.31;39.65;97777.88;10490551;28;20047;-77
2022/05/25 17:43:08;;;;;;;2.80;0.20;;;;;;;19.09;40.08;97777.81;10526505;28;20059;-79
2022/05/25 17:48:30;;;;;;;2.97;0.25;;;;;;;18.97;40.29;97789.44;10526560;28;20043;-79
2022/05/25 17:53:51;;;;;;;0.55;0.10;;;;;;;18.89;40.33;97800.44;10512314;28;20508;-79
2022/05/25 17:59:12;;;;;;;1.73;0.20;;;;;;;18.77;40.92;97797.19;10498301;28;20374;-76
2022/05/25 18:04:33;;;;;;;1.08;0.20;;;;;;;18.65;41.15;97805.97;10511797;28;20055;-75
2022/05/25 18:10:02;;;;;;;4.10;0.30;;;;;;;18.53;41.33;97806.22;10495554;28;20049;-77
2022/05/25 18:15:27;;;;;;;1.55;0.30;;;;;;;18.39;41.89;97814.16;10470718;28;20051;-76
2022/05/25 18:20:47;;;;;;;2.47;0.20;;;;;;;18.25;42.20;97816.44;10470724;28;20040;-87
2022/05/25 18:26:08;;;;;;;0.95;0.20;;;;;;;18.13;42.68;97818.78;10484664;28;20048;-90
2022/05/25 18:31:30;;;;;;;1.85;0.20;;;;;;;17.94;43.08;97820.16;10455597;28;20045;-81
2022/05/25 18:36:55;;;;;;;1.83;0.30;;;;;;;17.79;43.60;97812.50;10472510;28;20476;-81
2022/05/25 18:42:16;;;;;;;1.90;0.40;;;;;;;17.66;44.08;97828.16;10492420;28;20040;-77
2022/05/25 18:47:41;;;;;;;0.98;0.30;;;;;;;17.53;44.54;97832.59;10523073;28;20043;-83
2022/05/25 18:53:02;;;;;;;0.82;0.30;;;;;;;17.39;45.02;97835.56;10495294;28;20421;-77
2022/05/25 18:58:23;;;;;;;1.98;0.40;;;;;;;17.27;45.16;97832.19;10491616;28;20044;-76
2022/05/25 19:03:44;;;;;;;2.47;0.22;;;;;;;17.19;45.44;97845.97;10485416;28;20489;-77
2022/05/25 19:09:05;;;;;;;0.80;0.25;;;;;;;17.07;45.93;97851.06;10485881;28;20036;-75
2022/05/25 19:14:26;;;;;;;3.55;0.28;;;;;;;16.97;46.23;97861.91;10509487;28;20044;-75
2022/05/25 19:19:47;;;;;;;1.67;0.50;;;;;;;16.84;46.92;97869.09;10510659;28;20036;-76
2022/05/25 19:25:18;;;;;;;2.20;0.40;;;;;;;16.72;47.02;97877.75;10516455;28;20051;-77
2022/05/25 19:30:39;;;;;;;6.00;0.43;;;;;;;16.62;47.33;97882.88;10518294;28;20405;-76
2022/05/25 19:36:02;;;;;;;8.25;0.50;;;;;;;16.50;47.85;97887.94;10519726;28;20055;-82
2022/05/25 19:41:23;;;;;;;1.42;0.40;;;;;;;16.41;47.95;97895.31;10515372;28;20389;-78
2022/05/25 19:46:44;;;;;;;1.38;0.35;;;;;;;16.31;48.52;97904.00;10509241;28;20036;-80
2022/05/25 19:52:05;;;;;;;2.65;0.40;;;;;;;16.21;48.82;97914.03;10525031;28;20044;-79
2022/05/25 19:57:55;;;;;;;2.55;0.50;;;;;;;16.13;49.09;97920.03;10527506;28;20043;-82
2022/05/25 20:03:23;;;;;;;2.83;0.65;;;;;;;16.11;49.90;97922.00;10496031;28;20060;-79
2022/05/25 20:08:47;;;;;;;3.20;0.45;;;;;;;16.03;49.88;97923.06;10511271;28;20040;-79
2022/05/25 20:14:36;;;;;;;2.13;0.52;;;;;;;16.06;50.46;97926.72;10520614;28;20093;-78
2022/05/25 20:27:54;;;;;;;1.95;0.40;;;;;;;16.08;51.85;97934.53;10547798;28;20097;-75
2022/05/25 20:40:05;;;;;;;1.40;0.50;;;;;;;16.00;52.71;97935.59;11193649;24;20026;-83
2022/05/25 20:45:42;;;;;;;0.90;0.40;;;;;;;15.92;52.98;97928.81;10980057;24;20082;-80
